createdAt,value
2022-12-03T00:01:48.970Z,3.36
2022-12-03T00:04:51.882Z,3.44
2022-12-03T00:07:54.326Z,3.59
2022-12-03T00:10:56.796Z,3.51
2022-12-03T00:13:58.952Z,3.45
2022-12-03T00:17:01.574Z,3.65
2022-12-03T00:20:05.760Z,3.70
2022-12-03T00:23:08.084Z,3.86
2022-12-03T00:26:10.284Z,3.84
2022-12-03T00:29:12.815Z,3.86
2022-12-03T00:32:15.047Z,3.99
2022-12-03T00:35:17.594Z,3.84
2022-12-03T00:38:19.860Z,3.83
2022-12-03T00:41:22.368Z,3.75
2022-12-03T00:44:24.643Z,3.61
2022-12-03T00:47:27.167Z,3.47
2022-12-03T00:50:29.291Z,3.53
2022-12-03T00:53:31.805Z,3.43
2022-12-03T00:56:34.117Z,3.53
2022-12-03T00:59:36.584Z,3.63
2022-12-03T01:02:38.780Z,3.72
2022-12-03T01:05:41.202Z,3.72
2022-12-03T01:08:44.234Z,3.63
2022-12-03T01:11:46.678Z,3.61
2022-12-03T01:14:49.253Z,3.82
2022-12-03T01:17:54.184Z,3.79
2022-12-03T01:20:56.285Z,3.88
2022-12-03T01:23:58.865Z,3.88
2022-12-03T01:27:01.217Z,3.86
2022-12-03T01:30:04.808Z,3.92
2022-12-03T01:33:07.494Z,3.78
2022-12-03T01:36:09.927Z,3.78
2022-12-03T01:39:12.078Z,3.84
2022-12-03T01:42:21.976Z,3.96
2022-12-03T01:45:24.363Z,3.97
2022-12-03T01:48:35.437Z,3.94
2022-12-03T01:51:37.608Z,3.82
2022-12-03T01:54:53.501Z,3.88
2022-12-03T01:57:59.406Z,3.86
2022-12-03T02:01:07.178Z,3.90
2022-12-03T02:04:15.558Z,3.95
2022-12-03T02:07:22.078Z,3.93
2022-12-03T02:10:34.637Z,3.81
2022-12-03T02:13:37.720Z,3.74
2022-12-03T02:16:41.798Z,3.67
2022-12-03T02:19:44.586Z,3.65
2022-12-03T02:23:13.560Z,3.62
2022-12-03T02:26:16.067Z,3.68
2022-12-03T02:29:18.546Z,3.69
2022-12-03T02:32:23.467Z,3.64
2022-12-03T02:35:36.480Z,3.84
2022-12-03T02:38:39.839Z,3.94
2022-12-03T02:42:00.993Z,4.06
2022-12-03T02:45:11.402Z,3.81
2022-12-03T02:48:28.304Z,3.83
2022-12-03T02:51:31.291Z,3.74
2022-12-03T02:54:33.729Z,3.75
2022-12-03T02:57:37.937Z,3.79
2022-12-03T03:00:41.288Z,3.71
2022-12-03T03:03:45.481Z,3.56
2022-12-03T03:06:47.932Z,3.53
2022-12-03T03:09:50.648Z,3.65
2022-12-03T03:12:54.998Z,3.62
2022-12-03T03:15:57.499Z,3.67
2022-12-03T03:19:00.111Z,3.72
2022-12-03T03:22:02.550Z,3.65
2022-12-03T03:25:05.883Z,3.67
2022-12-03T03:28:08.942Z,3.80
2022-12-03T03:31:14.241Z,3.73
2022-12-03T03:34:17.492Z,3.76
2022-12-03T03:37:19.868Z,3.78
2022-12-03T03:40:22.392Z,3.83
2022-12-03T03:43:25.288Z,3.87
2022-12-03T03:46:28.720Z,3.95
2022-12-03T03:49:31.291Z,4.08
2022-12-03T03:52:36.251Z,3.96
2022-12-03T03:55:39.498Z,3.96
2022-12-03T03:58:41.981Z,4.02
2022-12-03T04:01:45.551Z,3.90
2022-12-03T04:04:49.020Z,3.91
2022-12-03T04:07:51.557Z,3.85
2022-12-03T04:11:13.005Z,4.00
2022-12-03T04:14:15.218Z,3.94
2022-12-03T04:17:17.673Z,3.86
2022-12-03T04:20:19.776Z,3.89
2022-12-03T04:23:25.000Z,3.92
2022-12-03T04:26:50.353Z,3.85
2022-12-03T04:29:53.322Z,3.66
2022-12-03T04:33:14.162Z,3.71
2022-12-03T04:36:17.036Z,3.85
2022-12-03T04:39:19.818Z,3.80
2022-12-03T04:42:22.260Z,3.74
2022-12-03T04:45:25.483Z,3.76
2022-12-03T04:48:27.938Z,3.86
2022-12-03T04:51:30.151Z,3.68
2022-12-03T04:54:36.348Z,3.70
2022-12-03T04:57:38.453Z,3.71
2022-12-03T05:00:40.831Z,3.72
2022-12-03T05:03:42.953Z,3.68
2022-12-03T05:06:45.879Z,3.79
2022-12-03T05:09:48.091Z,3.69
2022-12-03T05:12:50.463Z,3.54
2022-12-03T05:15:53.584Z,3.58
2022-12-03T05:18:56.271Z,3.33
2022-12-03T05:21:58.458Z,3.29
2022-12-03T05:25:00.928Z,3.38
2022-12-03T05:28:04.096Z,3.40
2022-12-03T05:31:06.820Z,3.36
2022-12-03T05:34:10.090Z,3.43
2022-12-03T05:37:12.507Z,3.32
2022-12-03T05:40:15.406Z,3.30
2022-12-03T05:43:18.061Z,3.57
2022-12-03T05:46:20.498Z,3.57
2022-12-03T05:49:22.945Z,3.66
2022-12-03T05:52:25.166Z,3.81
2022-12-03T05:55:28.000Z,3.65
2022-12-03T05:58:31.285Z,3.73
2022-12-03T06:01:34.495Z,3.63
2022-12-03T06:04:36.881Z,3.73
2022-12-03T06:07:39.830Z,3.87
2022-12-03T06:10:42.443Z,3.96
2022-12-03T06:13:44.790Z,3.94
2022-12-03T06:16:47.329Z,3.76
2022-12-03T06:19:49.514Z,3.77
2022-12-03T06:22:51.953Z,3.78
2022-12-03T06:25:54.105Z,3.79
2022-12-03T06:28:56.829Z,4.02
2022-12-03T06:31:58.930Z,4.08
2022-12-03T06:35:01.413Z,4.08
2022-12-03T06:38:03.539Z,4.19
2022-12-03T06:41:05.968Z,3.90
2022-12-03T06:44:08.098Z,4.08
2022-12-03T06:47:10.539Z,4.20
2022-12-03T06:50:13.753Z,4.37
2022-12-03T06:53:16.534Z,4.24
2022-12-03T06:56:22.046Z,4.25
2022-12-03T06:59:26.787Z,4.21
2022-12-03T07:02:29.033Z,3.99
2022-12-03T07:05:33.814Z,4.09
2022-12-03T07:08:35.966Z,4.09
2022-12-03T07:11:41.378Z,4.01
2022-12-03T07:14:45.887Z,4.15
2022-12-03T07:17:48.509Z,4.27
2022-12-03T07:20:50.814Z,4.04
2022-12-03T07:23:55.269Z,4.24
2022-12-03T07:26:57.534Z,4.28
2022-12-03T07:29:59.984Z,4.28
2022-12-03T07:33:02.380Z,4.42
2022-12-03T07:36:05.075Z,4.49
2022-12-03T07:39:08.319Z,4.45
2022-12-03T07:42:11.036Z,4.38
2022-12-03T07:45:13.226Z,4.46
2022-12-03T07:48:15.634Z,4.42
2022-12-03T07:51:17.818Z,4.50
2022-12-03T07:54:21.547Z,4.65
2022-12-03T07:57:23.835Z,4.48
2022-12-03T08:00:30.852Z,4.55
2022-12-03T08:03:33.262Z,4.63
2022-12-03T08:06:35.561Z,4.50
2022-12-03T08:09:40.129Z,4.43
2022-12-03T08:12:42.561Z,4.59
2022-12-03T08:15:45.397Z,4.63
2022-12-03T08:18:48.614Z,4.58
2022-12-03T08:21:54.044Z,4.70
2022-12-03T08:24:58.806Z,4.90
2022-12-03T08:28:13.146Z,5.04
2022-12-03T08:31:19.896Z,5.24
2022-12-03T08:34:27.281Z,5.26
2022-12-03T08:37:29.910Z,4.97
2022-12-03T08:40:39.491Z,5.12
2022-12-03T08:43:43.792Z,5.01
2022-12-03T08:46:52.794Z,4.96
2022-12-03T08:50:25.620Z,4.85
2022-12-03T08:53:35.158Z,4.82
2022-12-03T08:56:37.554Z,4.86
2022-12-03T08:59:44.181Z,4.86
2022-12-03T09:02:51.348Z,5.04
2022-12-03T09:05:53.773Z,5.20
2022-12-03T09:08:56.099Z,5.23
2022-12-03T09:11:58.599Z,5.26
2022-12-03T09:15:01.735Z,5.35
2022-12-03T09:18:04.276Z,5.41
2022-12-03T09:21:06.457Z,5.40
2022-12-03T09:24:08.958Z,5.48
2022-12-03T09:27:11.093Z,5.52
2022-12-03T09:30:13.773Z,5.85
2022-12-03T09:33:16.004Z,6.21
2022-12-03T09:36:19.007Z,6.13
2022-12-03T09:39:21.141Z,6.13
2022-12-03T09:42:24.701Z,6.14
2022-12-03T09:45:28.014Z,6.04
2022-12-03T09:48:30.626Z,6.15
2022-12-03T09:51:35.476Z,6.22
2022-12-03T09:54:42.766Z,6.27
2022-12-03T09:57:48.392Z,6.52
2022-12-03T10:00:52.330Z,6.75
2022-12-03T10:03:54.968Z,7.09
2022-12-03T10:06:58.811Z,7.08
2022-12-03T10:10:01.281Z,6.89
2022-12-03T10:13:06.345Z,7.01
2022-12-03T10:16:12.140Z,7.17
2022-12-03T10:19:27.603Z,7.13
2022-12-03T10:22:36.703Z,7.18
2022-12-03T10:26:04.953Z,7.09
2022-12-03T10:29:16.978Z,7.06
2022-12-03T10:32:24.234Z,7.09
2022-12-03T10:35:41.511Z,7.15
2022-12-03T10:38:43.781Z,7.19
2022-12-03T10:41:46.301Z,7.14
2022-12-03T10:44:48.600Z,7.07
2022-12-03T10:48:20.135Z,7.22
2022-12-03T10:51:22.453Z,7.13
2022-12-03T10:54:27.383Z,6.97
2022-12-03T10:57:30.663Z,7.05
2022-12-03T11:00:33.090Z,6.97
2022-12-03T11:03:36.794Z,7.09
2022-12-03T11:06:39.303Z,7.28
2022-12-03T11:09:45.079Z,7.21
2022-12-03T11:13:25.571Z,7.35
2022-12-03T11:16:40.076Z,7.36
2022-12-03T11:19:46.791Z,7.45
2022-12-03T11:22:58.985Z,7.54
2022-12-03T11:26:01.685Z,7.42
2022-12-03T11:29:05.332Z,7.52
2022-12-03T11:32:08.690Z,7.55
2022-12-03T11:35:23.002Z,7.43
2022-12-03T11:38:37.720Z,7.26
2022-12-03T11:41:39.872Z,7.22
2022-12-03T11:44:43.128Z,7.28
2022-12-03T11:48:17.330Z,7.32
2022-12-03T11:51:24.188Z,7.22
2022-12-03T11:54:26.615Z,7.48
2022-12-03T11:57:33.950Z,7.28
2022-12-03T12:00:36.154Z,7.20
2022-12-03T12:03:47.511Z,7.30
2022-12-03T12:06:53.299Z,7.12
2022-12-03T12:09:57.255Z,7.08
2022-12-03T12:12:59.751Z,7.00
2022-12-03T12:16:06.966Z,7.21
2022-12-03T12:19:43.004Z,7.26
2022-12-03T12:22:45.410Z,7.09
2022-12-03T12:25:53.766Z,7.13
2022-12-03T12:28:56.858Z,6.94
2022-12-03T12:32:12.081Z,6.90
2022-12-03T12:35:25.693Z,7.07
2022-12-03T12:38:28.745Z,6.98
2022-12-03T12:41:31.279Z,7.03
2022-12-03T12:44:33.390Z,7.09
2022-12-03T12:47:36.912Z,7.12
2022-12-03T12:50:40.394Z,6.98
2022-12-03T12:53:42.985Z,7.01
2022-12-03T12:56:50.517Z,6.83
2022-12-03T12:59:56.002Z,6.78
2022-12-03T13:03:01.270Z,6.79
2022-12-03T13:06:04.185Z,6.84
2022-12-03T13:09:18.898Z,6.82
2022-12-03T13:12:23.485Z,6.94
2022-12-03T13:15:59.917Z,6.96
2022-12-03T13:19:03.014Z,7.23
2022-12-03T13:22:16.040Z,7.08
2022-12-03T13:25:59.244Z,7.18
2022-12-03T13:29:06.198Z,7.44
2022-12-03T13:32:14.236Z,7.16
2022-12-03T13:35:30.155Z,7.25
2022-12-03T13:38:32.562Z,7.34
2022-12-03T13:41:53.516Z,7.24
2022-12-03T13:44:56.442Z,7.18
2022-12-03T13:48:01.085Z,7.30
2022-12-03T13:51:23.885Z,7.15
2022-12-03T13:54:31.274Z,7.07
2022-12-03T13:57:33.697Z,6.93
2022-12-03T14:00:36.047Z,7.07
2022-12-03T14:03:39.634Z,6.99
2022-12-03T14:06:41.922Z,6.92
2022-12-03T14:09:44.929Z,7.09
2022-12-03T14:12:47.106Z,7.12
2022-12-03T14:15:49.506Z,6.95
2022-12-03T14:18:51.627Z,6.84
2022-12-03T14:21:54.066Z,6.75
2022-12-03T14:24:57.644Z,6.71
2022-12-03T14:28:00.872Z,6.76
2022-12-03T14:31:02.989Z,6.71
2022-12-03T14:34:05.478Z,6.74
2022-12-03T14:37:07.733Z,6.70
2022-12-03T14:40:10.579Z,6.68
2022-12-03T14:43:14.777Z,6.59
2022-12-03T14:46:17.221Z,6.32
2022-12-03T14:49:19.370Z,6.32
2022-12-03T14:52:23.067Z,6.31
2022-12-03T14:55:25.259Z,6.13
2022-12-03T14:58:28.009Z,6.07
2022-12-03T15:01:30.178Z,6.02
2022-12-03T15:04:32.730Z,6.00
2022-12-03T15:07:35.017Z,6.01
2022-12-03T15:10:37.502Z,6.06
2022-12-03T15:13:39.747Z,5.96
2022-12-03T15:16:42.495Z,6.05
2022-12-03T15:19:44.657Z,6.02
2022-12-03T15:22:47.357Z,5.90
2022-12-03T15:25:49.542Z,5.92
2022-12-03T15:28:53.031Z,5.81
2022-12-03T15:31:55.323Z,5.79
2022-12-03T15:34:57.843Z,5.91
2022-12-03T15:38:00.550Z,5.94
2022-12-03T15:41:20.930Z,5.78
2022-12-03T15:44:23.065Z,5.79
2022-12-03T15:47:25.651Z,5.74
2022-12-03T15:50:27.787Z,5.70
2022-12-03T15:53:30.249Z,5.70
2022-12-03T15:56:32.680Z,5.74
2022-12-03T15:59:35.204Z,5.68
2022-12-03T16:02:37.357Z,5.63
2022-12-03T16:05:42.877Z,5.58
2022-12-03T16:08:45.094Z,5.59
2022-12-03T16:11:48.952Z,5.60
2022-12-03T16:14:51.481Z,5.58
2022-12-03T16:17:53.922Z,5.55
2022-12-03T16:20:58.122Z,5.56
2022-12-03T16:24:01.569Z,5.46
2022-12-03T16:27:03.828Z,5.37
2022-12-03T16:30:07.049Z,5.35
2022-12-03T16:33:09.250Z,5.28
2022-12-03T16:36:14.357Z,5.28
2022-12-03T16:39:16.557Z,5.36
2022-12-03T16:42:19.183Z,5.36
2022-12-03T16:45:27.226Z,5.26
2022-12-03T16:48:30.187Z,5.32
2022-12-03T16:51:32.716Z,5.25
2022-12-03T16:54:39.112Z,5.28
2022-12-03T16:57:41.217Z,5.28
2022-12-03T17:00:43.674Z,5.24
2022-12-03T17:03:45.780Z,5.29
2022-12-03T17:06:48.506Z,5.36
2022-12-03T17:09:50.719Z,5.39
2022-12-03T17:13:09.990Z,5.37
2022-12-03T17:16:12.568Z,5.33
2022-12-03T17:19:15.061Z,5.34
2022-12-03T17:22:17.205Z,5.31
2022-12-03T17:25:19.657Z,5.27
2022-12-03T17:28:21.827Z,5.22
2022-12-03T17:31:24.322Z,5.36
2022-12-03T17:34:26.498Z,5.33
2022-12-03T17:37:28.954Z,5.38
2022-12-03T17:40:31.362Z,5.23
2022-12-03T17:43:34.028Z,5.21
2022-12-03T17:46:36.265Z,5.15
2022-12-03T17:49:38.807Z,5.17
2022-12-03T17:52:41.035Z,5.06
2022-12-03T17:55:45.175Z,4.95
2022-12-03T17:58:47.546Z,4.92
2022-12-03T18:01:50.042Z,4.94
2022-12-03T18:04:52.554Z,4.94
2022-12-03T18:07:54.759Z,4.94
2022-12-03T18:10:57.201Z,4.88
2022-12-03T18:14:01.488Z,4.87
2022-12-03T18:17:03.948Z,4.81
2022-12-03T18:20:07.284Z,4.83
2022-12-03T18:23:09.691Z,4.88
2022-12-03T18:26:12.024Z,4.86
2022-12-03T18:29:14.535Z,4.89
2022-12-03T18:32:28.448Z,4.87
2022-12-03T18:35:32.031Z,4.80
2022-12-03T18:38:34.219Z,4.82
2022-12-03T18:41:36.897Z,4.87
2022-12-03T18:44:39.088Z,4.90
2022-12-03T18:47:42.331Z,4.89
2022-12-03T18:50:45.512Z,5.04
2022-12-03T18:53:49.330Z,4.95
2022-12-03T18:56:51.474Z,5.00
2022-12-03T18:59:54.128Z,4.98
2022-12-03T19:03:04.697Z,4.94
2022-12-03T19:06:17.184Z,4.91
2022-12-03T19:09:21.335Z,4.83
2022-12-03T19:12:23.813Z,4.76
2022-12-03T19:15:25.944Z,4.77
2022-12-03T19:18:29.029Z,4.69
2022-12-03T19:21:33.903Z,4.83
2022-12-03T19:24:36.492Z,4.81
2022-12-03T19:27:40.400Z,4.71
2022-12-03T19:30:42.829Z,4.75
2022-12-03T19:33:46.359Z,4.78
2022-12-03T19:36:49.093Z,4.82
2022-12-03T19:39:54.768Z,4.86
2022-12-03T19:42:57.415Z,4.81
2022-12-03T19:46:08.833Z,4.80
2022-12-03T19:49:12.011Z,4.80
2022-12-03T19:52:15.638Z,4.72
2022-12-03T19:55:19.522Z,4.70
2022-12-03T19:58:21.982Z,4.61
2022-12-03T20:01:27.747Z,4.71
2022-12-03T20:04:30.231Z,4.73
2022-12-03T20:07:32.453Z,4.78
2022-12-03T20:10:35.421Z,4.87
2022-12-03T20:13:37.590Z,4.92
2022-12-03T20:16:41.200Z,4.98
2022-12-03T20:19:43.451Z,5.11
2022-12-03T20:22:46.129Z,5.18
2022-12-03T20:25:48.297Z,5.28
2022-12-03T20:28:53.589Z,5.28
2022-12-03T20:31:55.850Z,5.23
2022-12-03T20:34:58.367Z,5.24
2022-12-03T20:38:00.518Z,5.29
2022-12-03T20:41:05.879Z,5.18
2022-12-03T20:44:10.423Z,5.16
2022-12-03T20:47:12.889Z,5.16
2022-12-03T20:50:15.324Z,5.17
2022-12-03T20:53:24.697Z,5.20
2022-12-03T20:56:34.404Z,5.20
2022-12-03T20:59:36.868Z,5.12
2022-12-03T21:02:39.084Z,5.14
2022-12-03T21:05:43.864Z,5.05
2022-12-03T21:08:46.474Z,5.03
2022-12-03T21:11:49.539Z,5.03
2022-12-03T21:14:51.999Z,4.97
2022-12-03T21:17:54.473Z,4.84
2022-12-03T21:21:00.257Z,4.89
2022-12-03T21:24:05.021Z,4.75
2022-12-03T21:27:07.179Z,4.81
2022-12-03T21:30:09.939Z,4.88
2022-12-03T21:33:12.129Z,4.79
2022-12-03T21:36:16.967Z,4.84
2022-12-03T21:39:19.350Z,4.77
2022-12-03T21:42:35.711Z,4.72
2022-12-03T21:45:40.621Z,4.74
2022-12-03T21:48:44.875Z,4.70
2022-12-03T21:51:47.066Z,4.68
2022-12-03T21:54:52.459Z,4.75
2022-12-03T21:57:54.664Z,4.76
2022-12-03T22:00:57.186Z,4.81
2022-12-03T22:04:00.169Z,4.82
2022-12-03T22:07:02.877Z,4.88
2022-12-03T22:10:08.660Z,4.90
2022-12-03T22:13:10.841Z,5.01
2022-12-03T22:16:17.350Z,5.01
2022-12-03T22:19:25.942Z,5.03
2022-12-03T22:22:28.643Z,4.92
2022-12-03T22:25:30.825Z,4.99
2022-12-03T22:28:34.437Z,4.96
2022-12-03T22:31:36.714Z,4.92
2022-12-03T22:34:40.925Z,4.89
2022-12-03T22:37:43.134Z,4.82
2022-12-03T22:40:47.023Z,4.75
2022-12-03T22:43:49.781Z,4.84
2022-12-03T22:46:52.371Z,4.88
2022-12-03T22:49:55.185Z,4.94
2022-12-03T22:52:57.995Z,4.88
2022-12-03T22:56:00.558Z,4.89
2022-12-03T22:59:03.065Z,5.04
2022-12-03T23:02:05.543Z,5.08
2022-12-03T23:05:08.020Z,5.22
2022-12-03T23:08:19.512Z,5.14
2022-12-03T23:11:22.346Z,5.15
2022-12-03T23:14:24.496Z,5.12
2022-12-03T23:17:26.933Z,5.14
2022-12-03T23:20:30.362Z,5.01
2022-12-03T23:23:33.902Z,4.91
2022-12-03T23:26:38.539Z,4.81
2022-12-03T23:29:41.057Z,4.89
2022-12-03T23:32:44.370Z,4.90
2022-12-03T23:35:46.986Z,4.83
2022-12-03T23:38:49.386Z,4.98
2022-12-03T23:41:54.695Z,4.95
2022-12-03T23:44:59.125Z,5.00
2022-12-03T23:48:01.548Z,5.07
2022-12-03T23:51:13.015Z,4.99
2022-12-03T23:54:15.917Z,5.05
2022-12-03T23:57:18.991Z,4.96
